sensor_id;sensor_type;location;lat;lon;timestamp;pressure;altitude;pressure_sealevel;temperature;humidity
6567;BME280;3317;43.994;22.878;2023-03-26T00:00:40;100493.56;;;15.38;64.68
6567;BME280;3317;43.994;22.878;2023-03-26T00:03:09;100494.13;;;15.33;65.05
6567;BME280;3317;43.994;22.878;2023-03-26T00:05:36;100492.06;;;15.35;64.55
6567;BME280;3317;43.994;22.878;2023-03-26T00:08:04;100485.03;;;15.26;64.33
6567;BME280;3317;43.994;22.878;2023-03-26T00:10:33;100498.19;;;15.22;65.01
6567;BME280;3317;43.994;22.878;2023-03-26T00:13:00;100509.13;;;15.22;64.57
6567;BME280;3317;43.994;22.878;2023-03-26T00:15:29;100507.44;;;15.21;64.20
6567;BME280;3317;43.994;22.878;2023-03-26T00:17:57;100500.09;;;15.22;63.98
6567;BME280;3317;43.994;22.878;2023-03-26T00:20:25;100508.66;;;15.18;64.23
6567;BME280;3317;43.994;22.878;2023-03-26T00:22:53;100498.03;;;15.09;64.01
6567;BME280;3317;43.994;22.878;2023-03-26T00:25:20;100509.41;;;15.12;63.85
6567;BME280;3317;43.994;22.878;2023-03-26T00:27:48;100519.84;;;15.09;63.80
6567;BME280;3317;43.994;22.878;2023-03-26T00:30:17;100505.25;;;15.01;63.92
6567;BME280;3317;43.994;22.878;2023-03-26T00:32:45;100526.19;;;15.09;63.97
6567;BME280;3317;43.994;22.878;2023-03-26T00:35:12;100529.47;;;15.04;63.64
6567;BME280;3317;43.994;22.878;2023-03-26T00:37:39;100533.25;;;15.03;63.19
6567;BME280;3317;43.994;22.878;2023-03-26T00:40:08;100477.88;;;14.64;62.41
6567;BME280;3317;43.994;22.878;2023-03-26T00:42:36;100520.44;;;15.04;61.37
6567;BME280;3317;43.994;22.878;2023-03-26T00:45:04;100529.38;;;14.98;60.97
6567;BME280;3317;43.994;22.878;2023-03-26T00:47:32;100524.47;;;14.93;60.60
6567;BME280;3317;43.994;22.878;2023-03-26T00:50:00;100532.00;;;14.91;60.22
6567;BME280;3317;43.994;22.878;2023-03-26T00:52:28;100528.31;;;14.84;60.25
6567;BME280;3317;43.994;22.878;2023-03-26T00:54:56;100528.72;;;14.81;60.49
6567;BME280;3317;43.994;22.878;2023-03-26T00:57:23;100547.41;;;14.84;60.33
6567;BME280;3317;43.994;22.878;2023-03-26T00:59:55;100530.78;;;14.78;60.31
6567;BME280;3317;43.994;22.878;2023-03-26T01:02:22;100539.25;;;14.84;59.88
6567;BME280;3317;43.994;22.878;2023-03-26T01:04:53;100548.84;;;14.80;60.06
6567;BME280;3317;43.994;22.878;2023-03-26T01:07:25;100549.56;;;14.73;59.58
6567;BME280;3317;43.994;22.878;2023-03-26T01:09:57;100563.22;;;14.73;59.39
6567;BME280;3317;43.994;22.878;2023-03-26T01:12:26;100555.22;;;14.72;59.72
6567;BME280;3317;43.994;22.878;2023-03-26T01:14:55;100549.56;;;14.73;59.42
6567;BME280;3317;43.994;22.878;2023-03-26T01:17:25;100558.28;;;14.69;59.33
6567;BME280;3317;43.994;22.878;2023-03-26T01:20:07;100559.84;;;14.63;59.35
6567;BME280;3317;43.994;22.878;2023-03-26T01:22:41;100541.81;;;14.62;59.41
6567;BME280;3317;43.994;22.878;2023-03-26T01:25:11;100551.41;;;14.58;59.21
6567;BME280;3317;43.994;22.878;2023-03-26T01:27:41;100534.44;;;14.47;59.27
6567;BME280;3317;43.994;22.878;2023-03-26T01:30:15;100546.97;;;14.57;58.79
6567;BME280;3317;43.994;22.878;2023-03-26T01:32:56;100560.63;;;14.57;59.17
6567;BME280;3317;43.994;22.878;2023-03-26T01:35:42;100545.34;;;14.47;59.00
6567;BME280;3317;43.994;22.878;2023-03-26T01:38:19;100545.34;;;14.47;58.77
6567;BME280;3317;43.994;22.878;2023-03-26T01:40:54;100551.19;;;14.44;58.57
6567;BME280;3317;43.994;22.878;2023-03-26T01:43:28;100536.88;;;14.42;58.77
6567;BME280;3317;43.994;22.878;2023-03-26T01:45:59;100540.53;;;14.34;58.98
6567;BME280;3317;43.994;22.878;2023-03-26T01:48:30;100487.53;;;13.99;59.24
6567;BME280;3317;43.994;22.878;2023-03-26T01:50:57;100557.28;;;14.31;58.94
6567;BME280;3317;43.994;22.878;2023-03-26T01:53:24;100555.91;;;14.27;59.01
6567;BME280;3317;43.994;22.878;2023-03-26T01:56:00;100547.56;;;14.29;58.79
6567;BME280;3317;43.994;22.878;2023-03-26T01:58:34;100550.19;;;14.22;59.05
6567;BME280;3317;43.994;22.878;2023-03-26T02:01:11;100552.53;;;14.25;59.23
6567;BME280;3317;43.994;22.878;2023-03-26T02:03:45;100563.69;;;14.15;58.87
6567;BME280;3317;43.994;22.878;2023-03-26T02:06:18;100547.81;;;13.96;59.02
6567;BME280;3317;43.994;22.878;2023-03-26T02:08:51;100569.38;;;14.05;59.23
6567;BME280;3317;43.994;22.878;2023-03-26T02:11:21;100565.00;;;13.96;59.08
6567;BME280;3317;43.994;22.878;2023-03-26T02:13:48;100514.13;;;13.65;59.01
6567;BME280;3317;43.994;22.878;2023-03-26T02:16:16;100570.81;;;13.93;59.42
6567;BME280;3317;43.994;22.878;2023-03-26T02:18:46;100557.75;;;13.88;59.53
6567;BME280;3317;43.994;22.878;2023-03-26T02:21:17;100562.81;;;13.91;59.30
6567;BME280;3317;43.994;22.878;2023-03-26T02:23:47;100561.31;;;13.89;59.39
6567;BME280;3317;43.994;22.878;2023-03-26T02:26:18;100559.97;;;13.85;59.49
6567;BME280;3317;43.994;22.878;2023-03-26T02:28:46;100550.69;;;13.71;59.52
6567;BME280;3317;43.994;22.878;2023-03-26T02:31:13;100567.03;;;13.71;59.66
6567;BME280;3317;43.994;22.878;2023-03-26T02:33:41;100570.13;;;13.68;59.82
6567;BME280;3317;43.994;22.878;2023-03-26T02:36:12;100552.84;;;13.52;59.39
6567;BME280;3317;43.994;22.878;2023-03-26T02:38:40;100583.22;;;13.64;59.40
6567;BME280;3317;43.994;22.878;2023-03-26T02:41:07;100585.47;;;13.60;59.43
6567;BME280;3317;43.994;22.878;2023-03-26T02:43:34;100536.59;;;13.19;59.35
6567;BME280;3317;43.994;22.878;2023-03-26T02:46:03;100591.31;;;13.49;59.54
6567;BME280;3317;43.994;22.878;2023-03-26T02:48:30;100591.66;;;13.37;59.73
6567;BME280;3317;43.994;22.878;2023-03-26T02:50:59;100604.25;;;13.38;59.67
6567;BME280;3317;43.994;22.878;2023-03-26T02:53:26;100616.81;;;13.40;59.59
6567;BME280;3317;43.994;22.878;2023-03-26T02:55:54;100620.75;;;13.37;59.48
6567;BME280;3317;43.994;22.878;2023-03-26T02:58:21;100619.03;;;13.36;59.55
6567;BME280;3317;43.994;22.878;2023-03-26T03:00:51;100620.09;;;13.27;59.19
6567;BME280;3317;43.994;22.878;2023-03-26T03:03:20;100627.88;;;13.38;58.79
6567;BME280;3317;43.994;22.878;2023-03-26T03:05:48;100628.09;;;13.28;59.27
6567;BME280;3317;43.994;22.878;2023-03-26T03:08:16;100632.84;;;13.26;58.99
6567;BME280;3317;43.994;22.878;2023-03-26T03:10:54;100624.03;;;13.16;58.63
6567;BME280;3317;43.994;22.878;2023-03-26T03:13:21;100632.19;;;13.24;58.44
6567;BME280;3317;43.994;22.878;2023-03-26T03:15:48;100630.34;;;13.16;58.77
6567;BME280;3317;43.994;22.878;2023-03-26T03:18:15;100644.81;;;13.08;58.85
6567;BME280;3317;43.994;22.878;2023-03-26T03:20:44;100642.09;;;13.08;59.08
6567;BME280;3317;43.994;22.878;2023-03-26T03:23:11;100642.25;;;13.07;59.10
6567;BME280;3317;43.994;22.878;2023-03-26T03:25:38;100638.19;;;13.03;58.97
6567;BME280;3317;43.994;22.878;2023-03-26T03:28:05;100643.44;;;13.04;58.60
6567;BME280;3317;43.994;22.878;2023-03-26T03:30:33;100636.31;;;13.03;58.69
6567;BME280;3317;43.994;22.878;2023-03-26T03:33:00;100572.28;;;12.59;58.75
6567;BME280;3317;43.994;22.878;2023-03-26T03:35:28;100644.50;;;12.95;58.99
6567;BME280;3317;43.994;22.878;2023-03-26T03:37:57;100655.38;;;12.95;58.83
6567;BME280;3317;43.994;22.878;2023-03-26T03:40:24;100647.88;;;12.89;58.83
6567;BME280;3317;43.994;22.878;2023-03-26T03:42:51;100644.84;;;12.84;58.85
6567;BME280;3317;43.994;22.878;2023-03-26T03:45:18;100657.56;;;12.83;58.68
6567;BME280;3317;43.994;22.878;2023-03-26T03:47:45;100666.41;;;12.85;58.53
6567;BME280;3317;43.994;22.878;2023-03-26T03:50:13;100666.09;;;12.80;58.57
6567;BME280;3317;43.994;22.878;2023-03-26T03:52:39;100671.88;;;12.77;58.65
6567;BME280;3317;43.994;22.878;2023-03-26T03:55:08;100668.28;;;12.76;58.59
6567;BME280;3317;43.994;22.878;2023-03-26T03:57:36;100647.38;;;12.60;58.99
6567;BME280;3317;43.994;22.878;2023-03-26T04:00:03;100669.81;;;12.71;58.70
6567;BME280;3317;43.994;22.878;2023-03-26T04:02:33;100648.41;;;12.67;58.78
6567;BME280;3317;43.994;22.878;2023-03-26T04:05:01;100654.53;;;12.70;58.37
6567;BME280;3317;43.994;22.878;2023-03-26T04:07:29;100639.22;;;12.60;58.76
6567;BME280;3317;43.994;22.878;2023-03-26T04:09:58;100637.19;;;12.62;58.55
6567;BME280;3317;43.994;22.878;2023-03-26T04:12:29;100647.75;;;12.65;58.27
6567;BME280;3317;43.994;22.878;2023-03-26T04:14:56;100653.16;;;12.65;58.33
6567;BME280;3317;43.994;22.878;2023-03-26T04:17:24;100654.03;;;12.58;58.50
6567;BME280;3317;43.994;22.878;2023-03-26T04:19:51;100663.03;;;12.50;58.46
6567;BME280;3317;43.994;22.878;2023-03-26T04:22:19;100665.03;;;12.48;58.59
6567;BME280;3317;43.994;22.878;2023-03-26T04:24:46;100625.09;;;12.15;58.67
6567;BME280;3317;43.994;22.878;2023-03-26T04:27:16;100656.03;;;12.31;59.30
6567;BME280;3317;43.994;22.878;2023-03-26T04:29:47;100669.09;;;12.27;59.39
6567;BME280;3317;43.994;22.878;2023-03-26T04:32:20;100644.97;;;12.16;59.61
6567;BME280;3317;43.994;22.878;2023-03-26T04:34:49;100667.56;;;12.24;60.26
6567;BME280;3317;43.994;22.878;2023-03-26T04:37:23;100657.72;;;12.23;60.50
6567;BME280;3317;43.994;22.878;2023-03-26T04:39:52;100668.06;;;12.20;60.32
6567;BME280;3317;43.994;22.878;2023-03-26T04:42:19;100669.25;;;12.17;60.68
6567;BME280;3317;43.994;22.878;2023-03-26T04:44:48;100674.53;;;12.27;60.73
6567;BME280;3317;43.994;22.878;2023-03-26T04:47:16;100672.66;;;12.19;60.79
6567;BME280;3317;43.994;22.878;2023-03-26T04:49:44;100678.38;;;12.16;61.19
6567;BME280;3317;43.994;22.878;2023-03-26T04:52:12;100659.53;;;12.06;61.18
6567;BME280;3317;43.994;22.878;2023-03-26T04:54:39;100680.97;;;12.18;61.20
6567;BME280;3317;43.994;22.878;2023-03-26T04:57:12;100681.97;;;12.17;61.53
6567;BME280;3317;43.994;22.878;2023-03-26T04:59:41;100683.53;;;12.19;61.40
6567;BME280;3317;43.994;22.878;2023-03-26T05:02:10;100671.59;;;12.12;61.31
6567;BME280;3317;43.994;22.878;2023-03-26T05:04:38;100691.31;;;12.22;61.30
6567;BME280;3317;43.994;22.878;2023-03-26T05:07:05;100685.41;;;12.27;61.47
6567;BME280;3317;43.994;22.878;2023-03-26T05:09:33;100678.25;;;12.34;61.09
6567;BME280;3317;43.994;22.878;2023-03-26T05:12:01;100674.91;;;12.41;61.29
6567;BME280;3317;43.994;22.878;2023-03-26T05:14:28;100675.72;;;12.41;60.90
6567;BME280;3317;43.994;22.878;2023-03-26T05:16:55;100672.16;;;12.49;60.85
6567;BME280;3317;43.994;22.878;2023-03-26T05:19:24;100676.78;;;12.57;60.39
6567;BME280;3317;43.994;22.878;2023-03-26T05:21:51;100675.75;;;12.66;60.29
6567;BME280;3317;43.994;22.878;2023-03-26T05:24:19;100667.78;;;12.73;60.53
6567;BME280;3317;43.994;22.878;2023-03-26T05:26:46;100670.50;;;12.81;59.74
6567;BME280;3317;43.994;22.878;2023-03-26T05:29:13;100639.38;;;12.67;59.37
6567;BME280;3317;43.994;22.878;2023-03-26T05:31:42;100664.22;;;12.89;59.06
6567;BME280;3317;43.994;22.878;2023-03-26T05:34:11;100664.53;;;12.94;59.29
6567;BME280;3317;43.994;22.878;2023-03-26T05:36:40;100667.25;;;13.02;59.29
6567;BME280;3317;43.994;22.878;2023-03-26T05:39:08;100659.56;;;13.14;58.86
6567;BME280;3317;43.994;22.878;2023-03-26T05:41:35;100668.41;;;13.24;58.75
6567;BME280;3317;43.994;22.878;2023-03-26T05:44:03;100663.47;;;13.36;58.14
6567;BME280;3317;43.994;22.878;2023-03-26T05:46:31;100659.03;;;13.44;58.61
6567;BME280;3317;43.994;22.878;2023-03-26T05:48:57;100654.06;;;13.56;57.63
6567;BME280;3317;43.994;22.878;2023-03-26T05:51:24;100670.69;;;13.69;57.11
6567;BME280;3317;43.994;22.878;2023-03-26T05:53:53;100671.16;;;13.81;57.11
6567;BME280;3317;43.994;22.878;2023-03-26T05:56:20;100669.94;;;13.92;57.07
6567;BME280;3317;43.994;22.878;2023-03-26T05:58:47;100673.75;;;14.06;56.72
6567;BME280;3317;43.994;22.878;2023-03-26T06:01:14;100673.19;;;14.19;56.62
6567;BME280;3317;43.994;22.878;2023-03-26T06:03:44;100664.94;;;14.27;55.91
6567;BME280;3317;43.994;22.878;2023-03-26T06:06:13;100646.72;;;14.28;55.65
6567;BME280;3317;43.994;22.878;2023-03-26T06:08:41;100661.38;;;14.50;55.12
6567;BME280;3317;43.994;22.878;2023-03-26T06:11:10;100665.75;;;14.59;54.81
6567;BME280;3317;43.994;22.878;2023-03-26T06:13:37;100673.34;;;14.72;54.41
6567;BME280;3317;43.994;22.878;2023-03-26T06:16:05;100668.50;;;14.83;53.98
6567;BME280;3317;43.994;22.878;2023-03-26T06:18:32;100663.63;;;14.93;53.89
6567;BME280;3317;43.994;22.878;2023-03-26T06:20:59;100674.00;;;15.13;53.28
6567;BME280;3317;43.994;22.878;2023-03-26T06:23:26;100609.13;;;14.85;53.25
6567;BME280;3317;43.994;22.878;2023-03-26T06:25:53;100679.22;;;15.38;52.92
6567;BME280;3317;43.994;22.878;2023-03-26T06:28:22;100680.84;;;15.47;52.76
6567;BME280;3317;43.994;22.878;2023-03-26T06:30:49;100663.97;;;15.58;52.68
6567;BME280;3317;43.994;22.878;2023-03-26T06:33:17;100677.03;;;15.78;51.75
6567;BME280;3317;43.994;22.878;2023-03-26T06:35:44;100684.66;;;15.83;51.22
6567;BME280;3317;43.994;22.878;2023-03-26T06:38:11;100692.50;;;16.01;50.93
6567;BME280;3317;43.994;22.878;2023-03-26T06:40:38;100690.72;;;16.08;51.04
6567;BME280;3317;43.994;22.878;2023-03-26T06:43:05;100699.06;;;16.22;50.44
6567;BME280;3317;43.994;22.878;2023-03-26T06:45:34;100691.03;;;16.35;49.88
6567;BME280;3317;43.994;22.878;2023-03-26T06:48:01;100688.81;;;16.45;49.33
6567;BME280;3317;43.994;22.878;2023-03-26T06:50:28;100672.84;;;16.49;49.64
6567;BME280;3317;43.994;22.878;2023-03-26T06:52:57;100689.03;;;16.66;48.93
6567;BME280;3317;43.994;22.878;2023-03-26T06:55:24;100688.69;;;16.75;49.64
6567;BME280;3317;43.994;22.878;2023-03-26T06:57:52;100695.72;;;16.85;49.28
6567;BME280;3317;43.994;22.878;2023-03-26T07:00:20;100676.16;;;16.88;48.98
6567;BME280;3317;43.994;22.878;2023-03-26T07:02:48;100702.88;;;17.08;48.88
6567;BME280;3317;43.994;22.878;2023-03-26T07:05:15;100708.47;;;17.21;48.76
6567;BME280;3317;43.994;22.878;2023-03-26T07:07:42;100718.63;;;17.27;48.40
6567;BME280;3317;43.994;22.878;2023-03-26T07:10:10;100722.13;;;17.43;47.85
6567;BME280;3317;43.994;22.878;2023-03-26T07:12:37;100719.41;;;17.50;46.13
6567;BME280;3317;43.994;22.878;2023-03-26T07:15:06;100722.19;;;17.56;44.99
6567;BME280;3317;43.994;22.878;2023-03-26T07:17:34;100709.41;;;17.64;45.42
6567;BME280;3317;43.994;22.878;2023-03-26T07:20:03;100716.00;;;17.76;45.12
6567;BME280;3317;43.994;22.878;2023-03-26T07:22:31;100719.63;;;17.83;44.88
6567;BME280;3317;43.994;22.878;2023-03-26T07:24:58;100710.41;;;17.98;44.04
6567;BME280;3317;43.994;22.878;2023-03-26T07:27:35;100702.50;;;18.10;43.75
6567;BME280;3317;43.994;22.878;2023-03-26T07:30:05;100711.19;;;18.20;42.98
6567;BME280;3317;43.994;22.878;2023-03-26T07:32:40;100712.47;;;18.31;42.77
6567;BME280;3317;43.994;22.878;2023-03-26T07:35:15;100715.91;;;18.47;42.50
6567;BME280;3317;43.994;22.878;2023-03-26T07:37:49;100725.00;;;18.54;41.45
6567;BME280;3317;43.994;22.878;2023-03-26T07:40:37;100714.00;;;18.47;41.06
6567;BME280;3317;43.994;22.878;2023-03-26T07:43:17;100730.06;;;18.57;40.58
6567;BME280;3317;43.994;22.878;2023-03-26T07:45:47;100726.09;;;18.73;41.32
6567;BME280;3317;43.994;22.878;2023-03-26T07:48:16;100724.00;;;18.82;40.15
6567;BME280;3317;43.994;22.878;2023-03-26T07:50:47;100731.63;;;18.93;39.70
6567;BME280;3317;43.994;22.878;2023-03-26T07:53:14;100701.19;;;18.95;39.53
6567;BME280;3317;43.994;22.878;2023-03-26T07:55:48;100721.50;;;19.14;39.35
6567;BME280;3317;43.994;22.878;2023-03-26T07:58:31;100720.03;;;19.18;39.89
6567;BME280;3317;43.994;22.878;2023-03-26T08:01:08;100724.03;;;19.22;40.38
6567;BME280;3317;43.994;22.878;2023-03-26T08:03:56;100729.34;;;19.31;40.18
6567;BME280;3317;43.994;22.878;2023-03-26T08:06:33;100729.53;;;19.36;39.56
6567;BME280;3317;43.994;22.878;2023-03-26T08:09:10;100737.34;;;19.39;39.20
6567;BME280;3317;43.994;22.878;2023-03-26T08:11:46;100663.19;;;19.12;39.38
6567;BME280;3317;43.994;22.878;2023-03-26T08:14:25;100729.50;;;19.56;38.88
6567;BME280;3317;43.994;22.878;2023-03-26T08:16:56;100725.66;;;19.70;38.80
6567;BME280;3317;43.994;22.878;2023-03-26T08:19:37;100730.69;;;19.80;38.40
6567;BME280;3317;43.994;22.878;2023-03-26T08:22:12;100723.28;;;19.88;37.23
6567;BME280;3317;43.994;22.878;2023-03-26T08:27:36;100729.41;;;20.03;37.18
6567;BME280;3317;43.994;22.878;2023-03-26T08:30:08;100726.38;;;20.18;36.82
6567;BME280;3317;43.994;22.878;2023-03-26T08:32:39;100724.22;;;20.27;35.98
6567;BME280;3317;43.994;22.878;2023-03-26T08:35:10;100731.78;;;20.38;36.16
6567;BME280;3317;43.994;22.878;2023-03-26T08:37:39;100731.78;;;20.38;35.37
6567;BME280;3317;43.994;22.878;2023-03-26T08:40:07;100738.75;;;20.48;35.40
6567;BME280;3317;43.994;22.878;2023-03-26T08:43:03;100721.53;;;20.59;35.30
6567;BME280;3317;43.994;22.878;2023-03-26T08:45:51;100718.09;;;20.64;34.85
6567;BME280;3317;43.994;22.878;2023-03-26T08:48:50;100711.91;;;20.68;34.60
6567;BME280;3317;43.994;22.878;2023-03-26T08:51:43;100707.03;;;20.71;34.26
6567;BME280;3317;43.994;22.878;2023-03-26T08:54:45;100707.22;;;20.76;34.99
6567;BME280;3317;43.994;22.878;2023-03-26T08:57:37;100703.13;;;20.92;34.62
6567;BME280;3317;43.994;22.878;2023-03-26T09:06:31;100712.59;;;21.21;33.85
6567;BME280;3317;43.994;22.878;2023-03-26T09:09:39;100703.78;;;21.38;33.09
6567;BME280;3317;43.994;22.878;2023-03-26T09:15:37;100687.84;;;21.59;33.09
6567;BME280;3317;43.994;22.878;2023-03-26T09:18:40;100682.13;;;21.60;32.50
6567;BME280;3317;43.994;22.878;2023-03-26T09:24:29;100694.78;;;21.87;32.24
6567;BME280;3317;43.994;22.878;2023-03-26T09:27:32;100667.84;;;21.89;31.50
6567;BME280;3317;43.994;22.878;2023-03-26T09:30:23;100665.50;;;21.86;31.11
6567;BME280;3317;43.994;22.878;2023-03-26T09:33:27;100669.66;;;21.95;31.79
6567;BME280;3317;43.994;22.878;2023-03-26T09:36:18;100681.00;;;21.87;30.71
6567;BME280;3317;43.994;22.878;2023-03-26T09:38:51;100668.19;;;21.92;30.48
6567;BME280;3317;43.994;22.878;2023-03-26T09:41:34;100659.59;;;22.01;30.49
6567;BME280;3317;43.994;22.878;2023-03-26T09:47:38;100649.59;;;22.18;30.99
6567;BME280;3317;43.994;22.878;2023-03-26T09:50:37;100650.66;;;22.17;30.92
6567;BME280;3317;43.994;22.878;2023-03-26T09:53:35;100647.09;;;22.17;30.67
6567;BME280;3317;43.994;22.878;2023-03-26T09:56:15;100646.63;;;22.32;30.40
6567;BME280;3317;43.994;22.878;2023-03-26T09:58:57;100633.13;;;22.42;30.27
6567;BME280;3317;43.994;22.878;2023-03-26T10:01:34;100637.75;;;22.48;30.16
6567;BME280;3317;43.994;22.878;2023-03-26T10:04:35;100628.28;;;22.56;29.87
6567;BME280;3317;43.994;22.878;2023-03-26T10:07:15;100622.59;;;22.51;28.91
6567;BME280;3317;43.994;22.878;2023-03-26T10:09:52;100571.88;;;22.21;29.64
6567;BME280;3317;43.994;22.878;2023-03-26T10:12:31;100624.19;;;22.59;29.86
6567;BME280;3317;43.994;22.878;2023-03-26T10:15:17;100597.19;;;22.61;30.02
6567;BME280;3317;43.994;22.878;2023-03-26T10:17:55;100610.66;;;22.81;29.84
6567;BME280;3317;43.994;22.878;2023-03-26T10:20:34;100591.66;;;22.73;29.04
6567;BME280;3317;43.994;22.878;2023-03-26T10:23:17;100612.94;;;22.84;29.59
6567;BME280;3317;43.994;22.878;2023-03-26T10:26:00;100604.28;;;23.04;28.74
6567;BME280;3317;43.994;22.878;2023-03-26T10:28:58;100611.28;;;23.07;28.40
6567;BME280;3317;43.994;22.878;2023-03-26T10:31:43;100604.53;;;23.15;27.98
6567;BME280;3317;43.994;22.878;2023-03-26T10:34:36;100593.72;;;23.13;28.21
6567;BME280;3317;43.994;22.878;2023-03-26T10:37:18;100583.59;;;23.19;28.25
6567;BME280;3317;43.994;22.878;2023-03-26T10:39:59;100587.09;;;23.26;27.80
6567;BME280;3317;43.994;22.878;2023-03-26T10:45:49;100579.13;;;23.54;27.60
6567;BME280;3317;43.994;22.878;2023-03-26T10:48:32;100573.22;;;23.62;27.71
6567;BME280;3317;43.994;22.878;2023-03-26T10:51:22;100569.16;;;23.53;27.11
6567;BME280;3317;43.994;22.878;2023-03-26T10:53:55;100555.31;;;23.53;27.16
6567;BME280;3317;43.994;22.878;2023-03-26T10:56:27;100553.41;;;23.53;26.42
6567;BME280;3317;43.994;22.878;2023-03-26T10:58:55;100533.84;;;23.43;26.66
6567;BME280;3317;43.994;22.878;2023-03-26T11:01:31;100545.56;;;23.62;26.76
6567;BME280;3317;43.994;22.878;2023-03-26T11:04:08;100536.03;;;23.70;26.46
6567;BME280;3317;43.994;22.878;2023-03-26T11:06:48;100528.94;;;23.91;28.25
6567;BME280;3317;43.994;22.878;2023-03-26T11:09:27;100525.06;;;24.04;26.43
6567;BME280;3317;43.994;22.878;2023-03-26T11:12:04;100531.44;;;24.04;25.85
6567;BME280;3317;43.994;22.878;2023-03-26T11:14:37;100530.59;;;24.04;25.74
6567;BME280;3317;43.994;22.878;2023-03-26T11:17:12;100533.38;;;24.04;25.65
6567;BME280;3317;43.994;22.878;2023-03-26T11:19:47;100522.03;;;24.05;25.18
6567;BME280;3317;43.994;22.878;2023-03-26T11:22:24;100503.00;;;24.09;25.16
6567;BME280;3317;43.994;22.878;2023-03-26T11:25:24;100515.09;;;24.20;25.98
6567;BME280;3317;43.994;22.878;2023-03-26T11:28:02;100507.97;;;24.24;25.50
6567;BME280;3317;43.994;22.878;2023-03-26T11:30:39;100487.66;;;24.18;24.50
6567;BME280;3317;43.994;22.878;2023-03-26T11:33:10;100498.13;;;24.33;25.99
6567;BME280;3317;43.994;22.878;2023-03-26T11:35:44;100474.81;;;24.29;24.88
6567;BME280;3317;43.994;22.878;2023-03-26T11:38:17;100480.34;;;24.29;24.68
6567;BME280;3317;43.994;22.878;2023-03-26T11:40:49;100494.88;;;24.37;23.63
6567;BME280;3317;43.994;22.878;2023-03-26T11:43:20;100484.63;;;24.37;23.51
6567;BME280;3317;43.994;22.878;2023-03-26T11:45:49;100480.19;;;24.53;23.72
6567;BME280;3317;43.994;22.878;2023-03-26T11:48:22;100478.38;;;24.64;24.03
6567;BME280;3317;43.994;22.878;2023-03-26T11:50:54;100462.69;;;24.70;22.10
6567;BME280;3317;43.994;22.878;2023-03-26T11:53:27;100472.03;;;24.64;22.34
6567;BME280;3317;43.994;22.878;2023-03-26T11:56:00;100464.34;;;24.71;23.01
6567;BME280;3317;43.994;22.878;2023-03-26T11:58:31;100454.09;;;24.49;21.77
6567;BME280;3317;43.994;22.878;2023-03-26T12:01:03;100451.38;;;24.54;21.79
6567;BME280;3317;43.994;22.878;2023-03-26T12:03:37;100451.91;;;24.51;21.48
6567;BME280;3317;43.994;22.878;2023-03-26T12:06:09;100439.47;;;24.54;22.25
6567;BME280;3317;43.994;22.878;2023-03-26T12:08:48;100443.75;;;24.61;23.28
6567;BME280;3317;43.994;22.878;2023-03-26T12:11:17;100447.16;;;24.69;21.79
6567;BME280;3317;43.994;22.878;2023-03-26T12:13:51;100444.84;;;24.60;21.66
6567;BME280;3317;43.994;22.878;2023-03-26T12:16:19;100441.47;;;24.58;22.29
6567;BME280;3317;43.994;22.878;2023-03-26T12:18:58;100434.94;;;24.47;22.35
6567;BME280;3317;43.994;22.878;2023-03-26T12:21:25;100430.44;;;24.41;22.43
6567;BME280;3317;43.994;22.878;2023-03-26T12:23:58;100413.28;;;24.22;22.78
6567;BME280;3317;43.994;22.878;2023-03-26T12:26:35;100420.31;;;24.30;23.30
6567;BME280;3317;43.994;22.878;2023-03-26T12:29:08;100420.66;;;24.16;22.61
6567;BME280;3317;43.994;22.878;2023-03-26T12:31:50;100417.28;;;24.14;22.55
6567;BME280;3317;43.994;22.878;2023-03-26T12:34:19;100419.06;;;24.03;23.18
6567;BME280;3317;43.994;22.878;2023-03-26T12:36:49;100412.50;;;23.93;22.88
6567;BME280;3317;43.994;22.878;2023-03-26T12:39:28;100416.16;;;23.81;23.26
6567;BME280;3317;43.994;22.878;2023-03-26T12:41:59;100415.41;;;23.69;23.37
6567;BME280;3317;43.994;22.878;2023-03-26T12:44:29;100410.97;;;23.68;23.52
6567;BME280;3317;43.994;22.878;2023-03-26T12:47:15;100404.44;;;23.57;23.58
6567;BME280;3317;43.994;22.878;2023-03-26T12:49:44;100396.56;;;23.37;23.46
6567;BME280;3317;43.994;22.878;2023-03-26T12:52:34;100379.31;;;23.29;23.34
6567;BME280;3317;43.994;22.878;2023-03-26T12:55:13;100383.78;;;23.18;23.70
6567;BME280;3317;43.994;22.878;2023-03-26T12:57:50;100377.47;;;23.06;24.06
6567;BME280;3317;43.994;22.878;2023-03-26T13:00:44;100383.16;;;22.87;23.33
6567;BME280;3317;43.994;22.878;2023-03-26T13:03:40;100370.81;;;22.78;23.64
6567;BME280;3317;43.994;22.878;2023-03-26T13:06:22;100367.72;;;22.62;23.98
6567;BME280;3317;43.994;22.878;2023-03-26T13:09:13;100330.22;;;22.26;24.19
6567;BME280;3317;43.994;22.878;2023-03-26T13:11:52;100356.56;;;22.45;24.21
6567;BME280;3317;43.994;22.878;2023-03-26T13:14:45;100354.19;;;22.37;24.16
6567;BME280;3317;43.994;22.878;2023-03-26T13:17:23;100363.31;;;22.26;24.01
6567;BME280;3317;43.994;22.878;2023-03-26T13:19:59;100354.19;;;22.25;24.47
6567;BME280;3317;43.994;22.878;2023-03-26T13:22:35;100360.69;;;22.19;24.55
6567;BME280;3317;43.994;22.878;2023-03-26T13:25:16;100348.94;;;22.12;24.74
6567;BME280;3317;43.994;22.878;2023-03-26T13:27:54;100344.88;;;22.02;25.12
6567;BME280;3317;43.994;22.878;2023-03-26T13:30:30;100336.94;;;21.94;24.82
6567;BME280;3317;43.994;22.878;2023-03-26T13:33:15;100333.13;;;21.83;24.58
6567;BME280;3317;43.994;22.878;2023-03-26T13:35:48;100313.69;;;21.66;24.78
6567;BME280;3317;43.994;22.878;2023-03-26T13:38:28;100328.16;;;21.73;25.08
6567;BME280;3317;43.994;22.878;2023-03-26T13:41:04;100324.31;;;21.62;24.61
6567;BME280;3317;43.994;22.878;2023-03-26T13:43:50;100314.69;;;21.53;24.37
6567;BME280;3317;43.994;22.878;2023-03-26T13:46:29;100319.22;;;21.47;24.98
6567;BME280;3317;43.994;22.878;2023-03-26T13:49:00;100318.25;;;21.42;24.17
6567;BME280;3317;43.994;22.878;2023-03-26T13:51:32;100322.81;;;21.36;24.25
6567;BME280;3317;43.994;22.878;2023-03-26T13:54:09;100312.75;;;21.30;23.90